Pleasanton, CA

10:48 AM PDT on August 27, 2014 (GMT -0700)
Palo Alto Of Santa Clara County | Change Station
CLOSE
Current Station
Airport
Location: Palo Alto,
Elevation: 7 ft
Nearby Weather Stations

Elev 7 ft 37.46 °N, 122.12 °W | Updated 1 hour ago

Clear
Clear
70 °F
Feels Like 70 °F
N
6
Wind Variable Wind from NE

Today
High -- | Low -- °F
--% Chance of Precip.
Yesterday
High -- | Low -- °F
Precip. -- in
6:33 AM 7:43 PM
Waxing Crescent, 4% visible
Pressure 30.07 in
Visibility 10.0 miles
Clouds Clear
Dew Point 63 °F
Humidity 78%
Rainfall 0.00 in
Snow Depth Not available.
UV 4 out of 12
Pollen 7.00 out of 12
PM2.5 Good
Flu Activity Not available.
METAR KPAO 271647Z 05005KT 10SM SKC 21/17 A3007

More Conditions Fewer Conditions

Pressure 30.07 in
Visibility 10.0 miles
Clouds Clear
Dew Point 63 °F
Humidity 78%
Rainfall 0.00 in
Snow Depth Not available.
UV 4 out of 12
Pollen 7.00 out of 12
PM2.5 Good
Flu Activity Not available.
METAR KPAO 271647Z 05005KT 10SM SKC 21/17 A3007

More Conditions Fewer Conditions

10-Day Weather Forecast

Almanac

Astronomy

Aug. 27, 2014 Rise Set
Actual Time 6:33 AM PDT 7:43 PM PDT
Civil Twilight 6:06 AM PDT 8:10 PM PDT
Nautical Twilight 5:34 AM PDT 8:42 PM PDT
Astronomical Twilight 5:00 AM PDT 9:16 PM PDT
Moon 8:31 AM PDT 8:42 PM PDT
Length of Visible Light 14h 04m
Length of Day
13h 10m
Tomorrow will be 2m 16s shorter.
Waxing Crescent, 4% of the Moon is Illuminated
Today
Waxing Crescent
Sep 2
First Quarter
Sep 8
Full
Sep 15
Last Quarter
Sep 24
New

Today's Extremes

State Highs State Lows

Community

WunderPhotos

Upload Photos

1,747,736 photos uploaded!

Nearby

Air Quality

  Air Quality AQ Index Pollutant
Yesterday Good
OZONE
Yesterday Good
PM2.5
Current Good
PM2.5
Wednesday Good
OZONE
Thursday Good
OZONE
Friday Good
OZONE
Saturday Good
OZONE
Sunday Good
OZONE
Monday Good
OZONE

Snow Depth

Station Depth Elevation
Blue Lakes 0 in 8000 ft
Forestdale Creek 0 in 8029 ft
Hagan's Meadow 0 in 8000 ft
Summit Meadow 0 in 9122 ft
Tahoe City Cross 0 in 6750 ft

Earthquake Activity

City Distance Mag. Time & Date
The Geysers, California 95 miles 2.6 7:42 AM PDT
2014-08-27
Soledad, California 87 miles 2.6 12:15 PM PDT
2014-08-26
Napa, California 48 miles 2.5 10:56 AM PDT
2014-08-26
Napa, California 48 miles 3.0 6:45 AM PDT
2014-08-26
Minimum magnitude displayed is 2.5.

Coastal Water Temperatures

Place Temperature
No Stations Reporting

Nearby Weather Stations